Rosharon, Texas
Current Conditions -  °F | °C
As of 4:35 AM on Thursday 23 Oct 2014 (Local Time) from KAXH Reporting Station
Clear Clear  
Wind Chill: 55°   Ceiling: Unl
Heat Index: 55°   Visibility: 10mi
Dew Point: 52°   Wind: 5mph
Humidity: 91%   Direction: 20°NNE
Pressure: 30.07"   Gusts: NA
Location:  29.35°N, 95.46°W
Report Text: KAXH 230935Z AUTO 02004KT 10SM CLR 13/11 A3007 RMK AO2 T01250110
Loading
Personal Weather Stations






























Interactive Weather Map
Tropical Storm Tracking
New forecast layout! Learn more

10-Day Weather Forecast

Advertisements
Track Severe Weather on mobile